sensor_id;sensor_type;location;lat;lon;timestamp;temperature;humidity
31391;DHT22;18022;45.492;11.548;2022-12-08T00:00:47;3.30;99.90
31391;DHT22;18022;45.492;11.548;2022-12-08T00:03:13;3.30;99.90
31391;DHT22;18022;45.492;11.548;2022-12-08T00:05:46;3.20;99.90
31391;DHT22;18022;45.492;11.548;2022-12-08T00:08:30;3.10;99.90
31391;DHT22;18022;45.492;11.548;2022-12-08T00:11:15;3.10;99.90
31391;DHT22;18022;45.492;11.548;2022-12-08T00:13:42;3.20;99.90
31391;DHT22;18022;45.492;11.548;2022-12-08T00:16:07;3.20;99.90
31391;DHT22;18022;45.492;11.548;2022-12-08T00:18:33;3.30;99.90
31391;DHT22;18022;45.492;11.548;2022-12-08T00:20:59;3.30;99.90
31391;DHT22;18022;45.492;11.548;2022-12-08T00:23:25;3.20;99.90
31391;DHT22;18022;45.492;11.548;2022-12-08T00:25:51;3.10;99.90
31391;DHT22;18022;45.492;11.548;2022-12-08T00:28:17;3.00;99.90
31391;DHT22;18022;45.492;11.548;2022-12-08T00:30:43;3.00;99.90
31391;DHT22;18022;45.492;11.548;2022-12-08T00:33:09;3.00;99.90
31391;DHT22;18022;45.492;11.548;2022-12-08T00:35:35;3.00;99.90
31391;DHT22;18022;45.492;11.548;2022-12-08T00:38:01;3.10;99.90
31391;DHT22;18022;45.492;11.548;2022-12-08T00:40:26;3.00;99.90
31391;DHT22;18022;45.492;11.548;2022-12-08T00:42:52;2.90;99.90
31391;DHT22;18022;45.492;11.548;2022-12-08T00:45:18;2.90;99.90
31391;DHT22;18022;45.492;11.548;2022-12-08T00:47:44;2.90;99.90
31391;DHT22;18022;45.492;11.548;2022-12-08T00:50:10;2.90;99.90
31391;DHT22;18022;45.492;11.548;2022-12-08T00:52:36;2.90;99.90
31391;DHT22;18022;45.492;11.548;2022-12-08T00:55:03;2.90;99.90
31391;DHT22;18022;45.492;11.548;2022-12-08T00:57:29;2.90;99.90
31391;DHT22;18022;45.492;11.548;2022-12-08T00:59:55;2.90;99.90
31391;DHT22;18022;45.492;11.548;2022-12-08T01:02:22;2.90;99.90
31391;DHT22;18022;45.492;11.548;2022-12-08T01:04:47;2.80;99.90
31391;DHT22;18022;45.492;11.548;2022-12-08T01:07:13;2.80;99.90
31391;DHT22;18022;45.492;11.548;2022-12-08T01:09:39;2.80;99.90
31391;DHT22;18022;45.492;11.548;2022-12-08T01:12:05;2.80;99.90
31391;DHT22;18022;45.492;11.548;2022-12-08T01:14:31;2.80;99.90
31391;DHT22;18022;45.492;11.548;2022-12-08T01:16:57;2.90;99.90
31391;DHT22;18022;45.492;11.548;2022-12-08T01:19:22;3.00;99.90
31391;DHT22;18022;45.492;11.548;2022-12-08T01:21:48;3.00;99.90
31391;DHT22;18022;45.492;11.548;2022-12-08T01:24:18;3.00;99.90
31391;DHT22;18022;45.492;11.548;2022-12-08T01:26:45;3.00;99.90
31391;DHT22;18022;45.492;11.548;2022-12-08T01:29:11;3.00;99.90
31391;DHT22;18022;45.492;11.548;2022-12-08T01:31:38;3.00;99.90
31391;DHT22;18022;45.492;11.548;2022-12-08T01:34:04;3.00;99.90
31391;DHT22;18022;45.492;11.548;2022-12-08T01:36:31;3.00;99.90
31391;DHT22;18022;45.492;11.548;2022-12-08T01:38:59;2.90;99.90
31391;DHT22;18022;45.492;11.548;2022-12-08T01:41:28;2.90;99.90
31391;DHT22;18022;45.492;11.548;2022-12-08T01:46:34;2.80;99.90
31391;DHT22;18022;45.492;11.548;2022-12-08T01:49:12;2.90;99.90
31391;DHT22;18022;45.492;11.548;2022-12-08T01:54:14;2.80;99.90
31391;DHT22;18022;45.492;11.548;2022-12-08T01:59:12;2.70;99.90
31391;DHT22;18022;45.492;11.548;2022-12-08T02:01:38;2.90;99.90
31391;DHT22;18022;45.492;11.548;2022-12-08T02:04:04;3.10;99.90
31391;DHT22;18022;45.492;11.548;2022-12-08T02:06:34;3.20;99.90
31391;DHT22;18022;45.492;11.548;2022-12-08T02:09:02;3.30;99.90
31391;DHT22;18022;45.492;11.548;2022-12-08T02:11:28;3.10;99.90
31391;DHT22;18022;45.492;11.548;2022-12-08T02:13:54;3.20;99.90
31391;DHT22;18022;45.492;11.548;2022-12-08T02:23:03;3.00;99.90
31391;DHT22;18022;45.492;11.548;2022-12-08T02:39:27;3.00;99.90
31391;DHT22;18022;45.492;11.548;2022-12-08T02:44:55;2.80;99.90
31391;DHT22;18022;45.492;11.548;2022-12-08T02:47:23;2.70;99.90
31391;DHT22;18022;45.492;11.548;2022-12-08T02:49:50;2.80;99.90
31391;DHT22;18022;45.492;11.548;2022-12-08T02:54:48;2.90;99.90
31391;DHT22;18022;45.492;11.548;2022-12-08T03:00:21;2.90;99.90
31391;DHT22;18022;45.492;11.548;2022-12-08T03:08:39;3.00;99.90
31391;DHT22;18022;45.492;11.548;2022-12-08T03:11:23;3.00;99.90
31391;DHT22;18022;45.492;11.548;2022-12-08T03:13:53;3.00;99.90
31391;DHT22;18022;45.492;11.548;2022-12-08T03:16:24;3.00;99.90
31391;DHT22;18022;45.492;11.548;2022-12-08T03:19:03;2.90;99.90
31391;DHT22;18022;45.492;11.548;2022-12-08T03:21:31;2.80;99.90
31391;DHT22;18022;45.492;11.548;2022-12-08T03:24:01;2.90;99.90
31391;DHT22;18022;45.492;11.548;2022-12-08T03:26:33;2.90;99.90
31391;DHT22;18022;45.492;11.548;2022-12-08T03:29:00;3.10;99.90
31391;DHT22;18022;45.492;11.548;2022-12-08T03:31:28;3.20;99.90
31391;DHT22;18022;45.492;11.548;2022-12-08T03:33:57;3.10;99.90
31391;DHT22;18022;45.492;11.548;2022-12-08T03:36:23;3.10;99.90
31391;DHT22;18022;45.492;11.548;2022-12-08T03:38:51;3.00;99.90
31391;DHT22;18022;45.492;11.548;2022-12-08T03:41:18;2.90;99.90
31391;DHT22;18022;45.492;11.548;2022-12-08T03:43:56;2.90;99.90
31391;DHT22;18022;45.492;11.548;2022-12-08T03:46:26;2.90;99.90
31391;DHT22;18022;45.492;11.548;2022-12-08T03:48:52;2.90;99.90
31391;DHT22;18022;45.492;11.548;2022-12-08T03:51:18;2.90;99.90
31391;DHT22;18022;45.492;11.548;2022-12-08T03:53:45;2.90;99.90
31391;DHT22;18022;45.492;11.548;2022-12-08T03:56:31;2.90;99.90
31391;DHT22;18022;45.492;11.548;2022-12-08T03:58:57;2.90;99.90
31391;DHT22;18022;45.492;11.548;2022-12-08T04:01:23;2.90;99.90
31391;DHT22;18022;45.492;11.548;2022-12-08T04:03:49;2.40;99.90
31391;DHT22;18022;45.492;11.548;2022-12-08T04:06:15;2.40;99.90
31391;DHT22;18022;45.492;11.548;2022-12-08T04:08:41;2.30;99.90
31391;DHT22;18022;45.492;11.548;2022-12-08T04:11:07;2.10;99.90
31391;DHT22;18022;45.492;11.548;2022-12-08T04:13:34;2.30;99.90
31391;DHT22;18022;45.492;11.548;2022-12-08T04:16:01;2.50;99.90
31391;DHT22;18022;45.492;11.548;2022-12-08T04:18:27;2.40;99.90
31391;DHT22;18022;45.492;11.548;2022-12-08T04:20:52;2.30;99.90
31391;DHT22;18022;45.492;11.548;2022-12-08T04:23:19;2.10;99.90
31391;DHT22;18022;45.492;11.548;2022-12-08T04:25:44;2.10;99.90
31391;DHT22;18022;45.492;11.548;2022-12-08T04:28:10;2.10;99.90
31391;DHT22;18022;45.492;11.548;2022-12-08T04:30:37;2.00;99.90
31391;DHT22;18022;45.492;11.548;2022-12-08T04:33:03;2.10;99.90
31391;DHT22;18022;45.492;11.548;2022-12-08T04:35:29;2.10;99.90
31391;DHT22;18022;45.492;11.548;2022-12-08T04:37:54;2.30;99.90
31391;DHT22;18022;45.492;11.548;2022-12-08T04:40:20;2.40;99.90
31391;DHT22;18022;45.492;11.548;2022-12-08T04:42:46;2.40;99.90
31391;DHT22;18022;45.492;11.548;2022-12-08T04:45:12;2.40;99.90
31391;DHT22;18022;45.492;11.548;2022-12-08T04:47:37;2.50;99.90
31391;DHT22;18022;45.492;11.548;2022-12-08T04:50:04;2.60;99.90
31391;DHT22;18022;45.492;11.548;2022-12-08T04:52:30;2.60;99.90
31391;DHT22;18022;45.492;11.548;2022-12-08T04:54:56;2.60;99.90
31391;DHT22;18022;45.492;11.548;2022-12-08T04:57:22;2.60;99.90
31391;DHT22;18022;45.492;11.548;2022-12-08T04:59:47;2.70;99.90
31391;DHT22;18022;45.492;11.548;2022-12-08T05:02:13;2.70;99.90
31391;DHT22;18022;45.492;11.548;2022-12-08T05:04:39;2.60;99.90
31391;DHT22;18022;45.492;11.548;2022-12-08T05:07:05;2.60;99.90
31391;DHT22;18022;45.492;11.548;2022-12-08T05:09:31;2.40;99.90
31391;DHT22;18022;45.492;11.548;2022-12-08T05:11:56;2.40;99.90
31391;DHT22;18022;45.492;11.548;2022-12-08T05:14:22;2.50;99.90
31391;DHT22;18022;45.492;11.548;2022-12-08T05:16:48;2.40;99.90
31391;DHT22;18022;45.492;11.548;2022-12-08T05:19:14;2.40;99.90
31391;DHT22;18022;45.492;11.548;2022-12-08T05:21:42;2.40;99.90
31391;DHT22;18022;45.492;11.548;2022-12-08T05:24:08;2.40;99.90
31391;DHT22;18022;45.492;11.548;2022-12-08T05:26:34;2.30;99.90
31391;DHT22;18022;45.492;11.548;2022-12-08T05:29:00;2.40;99.90
31391;DHT22;18022;45.492;11.548;2022-12-08T05:31:25;2.50;99.90
31391;DHT22;18022;45.492;11.548;2022-12-08T05:33:52;2.50;99.90
31391;DHT22;18022;45.492;11.548;2022-12-08T05:36:18;2.30;99.90
31391;DHT22;18022;45.492;11.548;2022-12-08T05:38:45;2.00;99.90
31391;DHT22;18022;45.492;11.548;2022-12-08T05:41:16;2.10;99.90
31391;DHT22;18022;45.492;11.548;2022-12-08T05:43:42;2.10;99.90
31391;DHT22;18022;45.492;11.548;2022-12-08T05:46:08;2.10;99.90
31391;DHT22;18022;45.492;11.548;2022-12-08T05:48:34;2.20;99.90
31391;DHT22;18022;45.492;11.548;2022-12-08T05:51:00;2.40;99.90
31391;DHT22;18022;45.492;11.548;2022-12-08T05:53:26;2.50;99.90
31391;DHT22;18022;45.492;11.548;2022-12-08T05:55:52;2.50;99.90
31391;DHT22;18022;45.492;11.548;2022-12-08T05:58:20;2.50;99.90
31391;DHT22;18022;45.492;11.548;2022-12-08T06:00:46;2.40;99.90
31391;DHT22;18022;45.492;11.548;2022-12-08T06:03:13;2.40;99.90
31391;DHT22;18022;45.492;11.548;2022-12-08T06:05:41;2.40;99.90
31391;DHT22;18022;45.492;11.548;2022-12-08T06:08:08;2.40;99.90
31391;DHT22;18022;45.492;11.548;2022-12-08T06:10:34;2.40;99.90
31391;DHT22;18022;45.492;11.548;2022-12-08T06:13:00;2.40;99.90
31391;DHT22;18022;45.492;11.548;2022-12-08T06:15:25;2.50;99.90
31391;DHT22;18022;45.492;11.548;2022-12-08T06:17:51;2.40;99.90
31391;DHT22;18022;45.492;11.548;2022-12-08T06:20:17;2.30;99.90
31391;DHT22;18022;45.492;11.548;2022-12-08T06:22:42;2.30;99.90
31391;DHT22;18022;45.492;11.548;2022-12-08T06:25:08;2.40;99.90
31391;DHT22;18022;45.492;11.548;2022-12-08T06:27:34;2.30;99.90
31391;DHT22;18022;45.492;11.548;2022-12-08T06:30:00;2.30;99.90
31391;DHT22;18022;45.492;11.548;2022-12-08T06:32:26;2.30;99.90
31391;DHT22;18022;45.492;11.548;2022-12-08T06:34:52;2.30;99.90
31391;DHT22;18022;45.492;11.548;2022-12-08T06:37:17;2.40;99.90
31391;DHT22;18022;45.492;11.548;2022-12-08T06:39:45;2.40;99.90
31391;DHT22;18022;45.492;11.548;2022-12-08T06:42:10;2.40;99.90
31391;DHT22;18022;45.492;11.548;2022-12-08T06:44:55;2.50;99.90
31391;DHT22;18022;45.492;11.548;2022-12-08T06:47:21;2.30;99.90
31391;DHT22;18022;45.492;11.548;2022-12-08T06:49:47;2.20;99.90
31391;DHT22;18022;45.492;11.548;2022-12-08T06:52:13;2.30;99.90
31391;DHT22;18022;45.492;11.548;2022-12-08T06:54:39;2.30;99.90
31391;DHT22;18022;45.492;11.548;2022-12-08T06:57:05;2.40;99.90
31391;DHT22;18022;45.492;11.548;2022-12-08T06:59:31;2.40;99.90
31391;DHT22;18022;45.492;11.548;2022-12-08T07:01:57;2.50;99.90
31391;DHT22;18022;45.492;11.548;2022-12-08T07:04:23;2.60;99.90
31391;DHT22;18022;45.492;11.548;2022-12-08T07:06:48;2.50;99.90
31391;DHT22;18022;45.492;11.548;2022-12-08T07:09:14;2.40;99.90
31391;DHT22;18022;45.492;11.548;2022-12-08T07:11:40;2.40;99.90
31391;DHT22;18022;45.492;11.548;2022-12-08T07:14:06;2.30;99.90
31391;DHT22;18022;45.492;11.548;2022-12-08T07:16:31;2.40;99.90
31391;DHT22;18022;45.492;11.548;2022-12-08T07:18:58;2.40;99.90
31391;DHT22;18022;45.492;11.548;2022-12-08T07:21:24;2.40;99.90
31391;DHT22;18022;45.492;11.548;2022-12-08T07:23:50;2.40;99.90
31391;DHT22;18022;45.492;11.548;2022-12-08T07:26:16;2.30;99.90
31391;DHT22;18022;45.492;11.548;2022-12-08T07:28:42;2.30;99.90
31391;DHT22;18022;45.492;11.548;2022-12-08T07:31:19;2.30;99.90
31391;DHT22;18022;45.492;11.548;2022-12-08T07:33:46;2.30;99.90
31391;DHT22;18022;45.492;11.548;2022-12-08T07:36:12;2.40;99.90
31391;DHT22;18022;45.492;11.548;2022-12-08T07:38:38;2.50;99.90
31391;DHT22;18022;45.492;11.548;2022-12-08T07:41:04;2.30;99.90
31391;DHT22;18022;45.492;11.548;2022-12-08T07:43:29;2.30;99.90
31391;DHT22;18022;45.492;11.548;2022-12-08T07:45:55;2.30;99.90
31391;DHT22;18022;45.492;11.548;2022-12-08T07:48:21;2.80;99.90
31391;DHT22;18022;45.492;11.548;2022-12-08T07:50:47;2.90;99.90
31391;DHT22;18022;45.492;11.548;2022-12-08T07:53:13;2.60;99.90
31391;DHT22;18022;45.492;11.548;2022-12-08T07:55:42;2.70;99.90
31391;DHT22;18022;45.492;11.548;2022-12-08T07:58:08;2.60;99.90
31391;DHT22;18022;45.492;11.548;2022-12-08T08:00:34;2.90;99.90
31391;DHT22;18022;45.492;11.548;2022-12-08T08:03:00;2.80;99.90
31391;DHT22;18022;45.492;11.548;2022-12-08T08:05:27;2.70;99.90
31391;DHT22;18022;45.492;11.548;2022-12-08T08:07:53;2.60;99.90
31391;DHT22;18022;45.492;11.548;2022-12-08T08:10:18;2.60;99.90
31391;DHT22;18022;45.492;11.548;2022-12-08T08:12:44;2.70;99.90
31391;DHT22;18022;45.492;11.548;2022-12-08T08:15:10;2.80;99.90
31391;DHT22;18022;45.492;11.548;2022-12-08T08:17:37;2.90;99.90
31391;DHT22;18022;45.492;11.548;2022-12-08T08:20:04;3.00;99.90
31391;DHT22;18022;45.492;11.548;2022-12-08T08:22:31;3.00;99.90
31391;DHT22;18022;45.492;11.548;2022-12-08T08:24:58;3.00;99.90
31391;DHT22;18022;45.492;11.548;2022-12-08T08:27:23;2.80;99.90
31391;DHT22;18022;45.492;11.548;2022-12-08T08:29:50;2.60;99.90
31391;DHT22;18022;45.492;11.548;2022-12-08T08:32:16;2.50;99.90
31391;DHT22;18022;45.492;11.548;2022-12-08T08:34:42;2.50;99.90
31391;DHT22;18022;45.492;11.548;2022-12-08T08:37:08;2.60;99.90
31391;DHT22;18022;45.492;11.548;2022-12-08T08:39:34;2.60;99.90
31391;DHT22;18022;45.492;11.548;2022-12-08T08:42:00;2.50;99.90
31391;DHT22;18022;45.492;11.548;2022-12-08T08:44:25;2.70;99.90
31391;DHT22;18022;45.492;11.548;2022-12-08T08:46:51;2.90;99.90
31391;DHT22;18022;45.492;11.548;2022-12-08T08:49:17;2.90;99.90
31391;DHT22;18022;45.492;11.548;2022-12-08T08:51:43;3.00;99.90
31391;DHT22;18022;45.492;11.548;2022-12-08T08:54:09;3.10;99.90
31391;DHT22;18022;45.492;11.548;2022-12-08T08:56:34;3.00;99.90
31391;DHT22;18022;45.492;11.548;2022-12-08T08:59:00;3.00;99.90
31391;DHT22;18022;45.492;11.548;2022-12-08T09:01:27;3.00;99.90
31391;DHT22;18022;45.492;11.548;2022-12-08T09:03:54;3.10;99.90
31391;DHT22;18022;45.492;11.548;2022-12-08T09:06:21;3.20;99.90
31391;DHT22;18022;45.492;11.548;2022-12-08T09:08:47;3.20;99.90
31391;DHT22;18022;45.492;11.548;2022-12-08T09:11:13;3.30;99.90
31391;DHT22;18022;45.492;11.548;2022-12-08T09:13:39;3.40;99.90
31391;DHT22;18022;45.492;11.548;2022-12-08T09:16:06;3.60;99.90
31391;DHT22;18022;45.492;11.548;2022-12-08T09:18:33;3.90;99.90
31391;DHT22;18022;45.492;11.548;2022-12-08T09:21:07;4.20;99.90
31391;DHT22;18022;45.492;11.548;2022-12-08T09:23:34;4.30;99.90
31391;DHT22;18022;45.492;11.548;2022-12-08T09:26:02;4.30;99.90
31391;DHT22;18022;45.492;11.548;2022-12-08T09:28:28;4.30;99.90
31391;DHT22;18022;45.492;11.548;2022-12-08T09:30:53;4.10;99.90
31391;DHT22;18022;45.492;11.548;2022-12-08T09:33:19;4.00;99.90
31391;DHT22;18022;45.492;11.548;2022-12-08T09:35:45;3.90;99.90
31391;DHT22;18022;45.492;11.548;2022-12-08T09:38:10;3.90;99.90
31391;DHT22;18022;45.492;11.548;2022-12-08T09:40:42;3.90;99.90
31391;DHT22;18022;45.492;11.548;2022-12-08T09:43:34;4.10;99.90
31391;DHT22;18022;45.492;11.548;2022-12-08T09:46:09;4.10;99.90
31391;DHT22;18022;45.492;11.548;2022-12-08T09:48:50;4.10;99.90
31391;DHT22;18022;45.492;11.548;2022-12-08T09:51:22;4.10;99.90
31391;DHT22;18022;45.492;11.548;2022-12-08T09:53:53;4.20;99.90
31391;DHT22;18022;45.492;11.548;2022-12-08T09:56:22;4.20;99.90
31391;DHT22;18022;45.492;11.548;2022-12-08T10:01:51;4.50;99.90
31391;DHT22;18022;45.492;11.548;2022-12-08T10:04:29;4.80;99.90
31391;DHT22;18022;45.492;11.548;2022-12-08T10:07:19;5.00;99.90
31391;DHT22;18022;45.492;11.548;2022-12-08T10:15:25;4.90;99.90
31391;DHT22;18022;45.492;11.548;2022-12-08T10:17:56;4.90;99.90
31391;DHT22;18022;45.492;11.548;2022-12-08T10:20:29;5.00;99.90
31391;DHT22;18022;45.492;11.548;2022-12-08T10:23:08;5.00;99.90
31391;DHT22;18022;45.492;11.548;2022-12-08T10:25:49;5.00;99.90
31391;DHT22;18022;45.492;11.548;2022-12-08T10:28:15;5.10;99.90
31391;DHT22;18022;45.492;11.548;2022-12-08T10:30:41;5.20;99.90
31391;DHT22;18022;45.492;11.548;2022-12-08T10:33:15;5.30;99.90
31391;DHT22;18022;45.492;11.548;2022-12-08T10:35:46;5.30;99.90
31391;DHT22;18022;45.492;11.548;2022-12-08T10:38:32;5.30;99.90
31391;DHT22;18022;45.492;11.548;2022-12-08T10:46:24;5.40;99.90
31391;DHT22;18022;45.492;11.548;2022-12-08T10:48:53;5.60;99.90
31391;DHT22;18022;45.492;11.548;2022-12-08T10:51:26;5.80;99.90
31391;DHT22;18022;45.492;11.548;2022-12-08T10:53:53;6.10;99.90
31391;DHT22;18022;45.492;11.548;2022-12-08T10:56:25;6.30;99.90
31391;DHT22;18022;45.492;11.548;2022-12-08T11:01:35;6.30;99.90
31391;DHT22;18022;45.492;11.548;2022-12-08T11:04:04;6.30;99.90
31391;DHT22;18022;45.492;11.548;2022-12-08T11:06:37;6.30;99.90
31391;DHT22;18022;45.492;11.548;2022-12-08T11:11:59;6.30;99.90
31391;DHT22;18022;45.492;11.548;2022-12-08T11:17:12;6.40;99.90
31391;DHT22;18022;45.492;11.548;2022-12-08T11:20:02;6.40;99.90
31391;DHT22;18022;45.492;11.548;2022-12-08T11:22:43;6.50;99.90
31391;DHT22;18022;45.492;11.548;2022-12-08T11:25:24;6.50;99.90
31391;DHT22;18022;45.492;11.548;2022-12-08T11:27:52;6.50;99.90
31391;DHT22;18022;45.492;11.548;2022-12-08T11:30:19;6.60;99.90
31391;DHT22;18022;45.492;11.548;2022-12-08T11:32:52;6.70;99.90
31391;DHT22;18022;45.492;11.548;2022-12-08T11:35:28;6.80;99.90
31391;DHT22;18022;45.492;11.548;2022-12-08T11:38:20;7.30;99.90
31391;DHT22;18022;45.492;11.548;2022-12-08T11:40:47;7.50;99.90
31391;DHT22;18022;45.492;11.548;2022-12-08T11:46:22;7.60;99.90
31391;DHT22;18022;45.492;11.548;2022-12-08T11:48:55;7.70;99.90
31391;DHT22;18022;45.492;11.548;2022-12-08T11:54:17;7.80;99.90
31391;DHT22;18022;45.492;11.548;2022-12-08T11:56:51;7.70;99.90
31391;DHT22;18022;45.492;11.548;2022-12-08T11:59:27;7.90;99.90
31391;DHT22;18022;45.492;11.548;2022-12-08T12:01:55;8.20;99.90
31391;DHT22;18022;45.492;11.548;2022-12-08T12:04:42;8.50;99.90
31391;DHT22;18022;45.492;11.548;2022-12-08T12:24:02;9.40;99.90
31391;DHT22;18022;45.492;11.548;2022-12-08T12:26:31;9.30;99.90
31391;DHT22;18022;45.492;11.548;2022-12-08T12:29:17;9.20;99.90
31391;DHT22;18022;45.492;11.548;2022-12-08T12:31:51;9.30;99.90
31391;DHT22;18022;45.492;11.548;2022-12-08T12:34:25;9.20;99.90
31391;DHT22;18022;45.492;11.548;2022-12-08T12:36:57;9.20;99.90
31391;DHT22;18022;45.492;11.548;2022-12-08T12:39:31;9.10;99.90
31391;DHT22;18022;45.492;11.548;2022-12-08T12:42:03;8.90;99.90
31391;DHT22;18022;45.492;11.548;2022-12-08T12:46:59;8.70;99.90
31391;DHT22;18022;45.492;11.548;2022-12-08T12:57:21;8.30;99.90
31391;DHT22;18022;45.492;11.548;2022-12-08T13:02:30;8.40;99.90
31391;DHT22;18022;45.492;11.548;2022-12-08T13:10:46;8.40;99.90
31391;DHT22;18022;45.492;11.548;2022-12-08T13:13:16;8.50;99.90
31391;DHT22;18022;45.492;11.548;2022-12-08T13:20:56;9.00;99.90
31391;DHT22;18022;45.492;11.548;2022-12-08T13:26:25;9.30;99.90
31391;DHT22;18022;45.492;11.548;2022-12-08T13:31:47;9.30;99.90
31391;DHT22;18022;45.492;11.548;2022-12-08T13:34:20;9.30;99.90
31391;DHT22;18022;45.492;11.548;2022-12-08T13:39:43;9.30;99.90
31391;DHT22;18022;45.492;11.548;2022-12-08T13:42:20;9.30;99.90
31391;DHT22;18022;45.492;11.548;2022-12-08T13:44:57;9.30;99.90
31391;DHT22;18022;45.492;11.548;2022-12-08T13:47:35;9.30;99.90
31391;DHT22;18022;45.492;11.548;2022-12-08T13:50:14;9.30;99.90
31391;DHT22;18022;45.492;11.548;2022-12-08T13:52:54;9.30;99.90
31391;DHT22;18022;45.492;11.548;2022-12-08T13:55:59;9.30;99.90
31391;DHT22;18022;45.492;11.548;2022-12-08T13:58:33;9.20;99.90
31391;DHT22;18022;45.492;11.548;2022-12-08T14:06:18;9.20;99.90
31391;DHT22;18022;45.492;11.548;2022-12-08T14:08:47;9.10;99.90
31391;DHT22;18022;45.492;11.548;2022-12-08T14:11:40;9.10;99.90
31391;DHT22;18022;45.492;11.548;2022-12-08T14:14:21;9.00;99.90
31391;DHT22;18022;45.492;11.548;2022-12-08T14:16:52;8.90;99.90
31391;DHT22;18022;45.492;11.548;2022-12-08T14:19:23;8.90;99.90
31391;DHT22;18022;45.492;11.548;2022-12-08T14:21:58;8.90;99.90
31391;DHT22;18022;45.492;11.548;2022-12-08T14:24:25;8.80;99.90
31391;DHT22;18022;45.492;11.548;2022-12-08T14:26:55;8.60;99.90
31391;DHT22;18022;45.492;11.548;2022-12-08T14:29:46;8.60;99.90
31391;DHT22;18022;45.492;11.548;2022-12-08T14:33:08;8.50;99.90
31391;DHT22;18022;45.492;11.548;2022-12-08T14:35:26;8.40;99.90
31391;DHT22;18022;45.492;11.548;2022-12-08T14:37:55;8.30;99.90
31391;DHT22;18022;45.492;11.548;2022-12-08T14:40:24;8.30;99.90
31391;DHT22;18022;45.492;11.548;2022-12-08T14:48:39;8.00;99.90
31391;DHT22;18022;45.492;11.548;2022-12-08T15:01:37;7.80;99.90
31391;DHT22;18022;45.492;11.548;2022-12-08T15:07:26;7.60;99.90
31391;DHT22;18022;45.492;11.548;2022-12-08T15:12:38;7.60;99.90
31391;DHT22;18022;45.492;11.548;2022-12-08T15:17:42;7.50;99.90
31391;DHT22;18022;45.492;11.548;2022-12-08T15:20:35;7.60;99.90
31391;DHT22;18022;45.492;11.548;2022-12-08T15:23:04;7.50;99.90
31391;DHT22;18022;45.492;11.548;2022-12-08T15:25:30;7.30;99.90
31391;DHT22;18022;45.492;11.548;2022-12-08T15:27:56;7.40;99.90
31391;DHT22;18022;45.492;11.548;2022-12-08T15:30:23;7.40;99.90
31391;DHT22;18022;45.492;11.548;2022-12-08T15:32:51;7.20;99.90
31391;DHT22;18022;45.492;11.548;2022-12-08T15:35:18;7.20;99.90
31391;DHT22;18022;45.492;11.548;2022-12-08T15:37:44;7.20;99.90
31391;DHT22;18022;45.492;11.548;2022-12-08T15:40:19;7.20;99.90
31391;DHT22;18022;45.492;11.548;2022-12-08T15:42:46;7.10;99.90
31391;DHT22;18022;45.492;11.548;2022-12-08T15:45:15;7.00;99.90
31391;DHT22;18022;45.492;11.548;2022-12-08T15:47:41;7.00;99.90
31391;DHT22;18022;45.492;11.548;2022-12-08T15:50:19;7.00;99.90
31391;DHT22;18022;45.492;11.548;2022-12-08T15:52:46;6.90;99.90
31391;DHT22;18022;45.492;11.548;2022-12-08T15:55:17;6.90;99.90
31391;DHT22;18022;45.492;11.548;2022-12-08T15:57:44;7.00;99.90
31391;DHT22;18022;45.492;11.548;2022-12-08T16:00:28;7.00;99.90
31391;DHT22;18022;45.492;11.548;2022-12-08T16:02:55;6.90;99.90
31391;DHT22;18022;45.492;11.548;2022-12-08T16:05:22;6.90;99.90
31391;DHT22;18022;45.492;11.548;2022-12-08T16:07:48;6.80;99.90
31391;DHT22;18022;45.492;11.548;2022-12-08T16:10:20;6.70;99.90
31391;DHT22;18022;45.492;11.548;2022-12-08T16:12:46;6.70;99.90
31391;DHT22;18022;45.492;11.548;2022-12-08T16:15:32;6.50;99.90
31391;DHT22;18022;45.492;11.548;2022-12-08T16:17:58;6.50;99.90
31391;DHT22;18022;45.492;11.548;2022-12-08T16:20:24;6.60;99.90
31391;DHT22;18022;45.492;11.548;2022-12-08T16:22:50;6.60;99.90
31391;DHT22;18022;45.492;11.548;2022-12-08T16:25:17;6.30;99.90
31391;DHT22;18022;45.492;11.548;2022-12-08T16:27:43;6.30;99.90
31391;DHT22;18022;45.492;11.548;2022-12-08T16:30:14;6.20;99.90
31391;DHT22;18022;45.492;11.548;2022-12-08T16:32:40;6.20;99.90
31391;DHT22;18022;45.492;11.548;2022-12-08T16:35:07;6.00;99.90
31391;DHT22;18022;45.492;11.548;2022-12-08T16:37:33;6.00;99.90
31391;DHT22;18022;45.492;11.548;2022-12-08T16:39:58;6.10;99.90
31391;DHT22;18022;45.492;11.548;2022-12-08T16:42:32;6.10;99.90
31391;DHT22;18022;45.492;11.548;2022-12-08T16:45:15;6.10;99.90
31391;DHT22;18022;45.492;11.548;2022-12-08T16:47:44;6.00;99.90
31391;DHT22;18022;45.492;11.548;2022-12-08T16:50:13;6.00;99.90
31391;DHT22;18022;45.492;11.548;2022-12-08T16:52:39;5.90;99.90
31391;DHT22;18022;45.492;11.548;2022-12-08T16:55:11;5.80;99.90
31391;DHT22;18022;45.492;11.548;2022-12-08T16:57:37;5.70;99.90
31391;DHT22;18022;45.492;11.548;2022-12-08T17:00:06;5.50;99.90
31391;DHT22;18022;45.492;11.548;2022-12-08T17:02:32;5.40;99.90
31391;DHT22;18022;45.492;11.548;2022-12-08T17:04:58;5.30;99.90
31391;DHT22;18022;45.492;11.548;2022-12-08T17:07:24;5.30;99.90
31391;DHT22;18022;45.492;11.548;2022-12-08T17:09:49;5.30;99.90
31391;DHT22;18022;45.492;11.548;2022-12-08T17:12:15;5.40;99.90
31391;DHT22;18022;45.492;11.548;2022-12-08T17:14:41;5.40;99.90
31391;DHT22;18022;45.492;11.548;2022-12-08T17:17:07;5.50;99.90
31391;DHT22;18022;45.492;11.548;2022-12-08T17:19:33;5.50;99.90
31391;DHT22;18022;45.492;11.548;2022-12-08T17:21:59;5.50;99.90
31391;DHT22;18022;45.492;11.548;2022-12-08T17:24:24;5.20;99.90
31391;DHT22;18022;45.492;11.548;2022-12-08T17:26:57;5.10;99.90
31391;DHT22;18022;45.492;11.548;2022-12-08T17:29:24;5.10;99.90
31391;DHT22;18022;45.492;11.548;2022-12-08T17:31:50;5.20;99.90
31391;DHT22;18022;45.492;11.548;2022-12-08T17:34:16;5.10;99.90
31391;DHT22;18022;45.492;11.548;2022-12-08T17:36:41;5.20;99.90
31391;DHT22;18022;45.492;11.548;2022-12-08T17:39:07;5.30;99.90
31391;DHT22;18022;45.492;11.548;2022-12-08T17:41:33;5.20;99.90
31391;DHT22;18022;45.492;11.548;2022-12-08T17:43:59;5.30;99.90
31391;DHT22;18022;45.492;11.548;2022-12-08T17:46:25;5.30;99.90
31391;DHT22;18022;45.492;11.548;2022-12-08T17:48:51;5.20;99.90
31391;DHT22;18022;45.492;11.548;2022-12-08T17:51:17;4.90;99.90
31391;DHT22;18022;45.492;11.548;2022-12-08T17:53:43;4.60;99.90
31391;DHT22;18022;45.492;11.548;2022-12-08T17:56:18;4.50;99.90
31391;DHT22;18022;45.492;11.548;2022-12-08T17:58:44;4.50;99.90
31391;DHT22;18022;45.492;11.548;2022-12-08T18:01:10;4.60;99.90
31391;DHT22;18022;45.492;11.548;2022-12-08T18:03:36;4.60;99.90
31391;DHT22;18022;45.492;11.548;2022-12-08T18:06:09;4.60;99.90
31391;DHT22;18022;45.492;11.548;2022-12-08T18:08:35;4.80;99.90
31391;DHT22;18022;45.492;11.548;2022-12-08T18:11:03;4.90;99.90